Time,TemperatureF,DewpointF,PressureIn,WindDirection,WindDirectionDegrees,WindSpeedMPH,WindSpeedGustMPH,Humidity,HourlyPrecipIn,Conditions,Clouds,dailyrainin,SoftwareType,DateUTC
2013-11-26 00:14:00,36.1,8.4,29.65,SW,215,0.0,0.0,31,0.00,,,0.00,VWS V14.01,2013-11-26 05:14:00,
2013-11-26 00:29:00,36.1,9.1,29.65,SW,215,0.0,0.0,32,0.00,,,0.00,VWS V14.01,2013-11-26 05:29:00,
2013-11-26 00:44:00,36.1,9.1,29.65,SW,215,0.0,0.0,32,0.00,,,0.00,VWS V14.01,2013-11-26 05:44:00,
2013-11-26 00:59:00,36.1,9.8,29.62,SW,215,0.0,0.0,33,0.00,,,0.00,VWS V14.01,2013-11-26 05:59:00,
2013-11-26 01:14:00,36.1,10.5,29.62,SW,215,0.0,0.0,34,0.00,,,0.00,VWS V14.01,2013-11-26 06:14:00,
2013-11-26 01:29:00,36.3,11.9,29.62,SW,215,0.0,0.0,36,0.00,,,0.00,VWS V14.01,2013-11-26 06:29:00,
2013-11-26 01:44:00,36.3,13.2,29.59,SW,215,0.0,0.0,38,0.00,,,0.00,VWS V14.01,2013-11-26 06:44:00,
2013-11-26 01:59:00,36.5,13.9,29.59,SW,215,0.0,0.0,39,0.00,,,0.00,VWS V14.01,2013-11-26 06:59:00,
2013-11-26 02:14:00,36.7,14.6,29.59,SW,215,0.0,0.0,40,0.00,,,0.00,VWS V14.01,2013-11-26 07:14:00,
2013-11-26 02:29:00,36.9,14.8,29.59,SW,215,0.0,0.0,40,0.00,,,0.00,VWS V14.01,2013-11-26 07:29:00,
2013-11-26 02:44:00,36.9,14.8,29.59,SW,215,0.0,0.0,40,0.00,,,0.00,VWS V14.01,2013-11-26 07:44:00,
2013-11-26 02:59:00,36.9,14.8,29.59,SW,215,0.0,0.0,40,0.00,,,0.00,VWS V14.01,2013-11-26 07:59:00,
2013-11-26 03:14:00,36.9,15.4,29.59,SW,215,0.0,0.0,41,0.00,,,0.00,VWS V14.01,2013-11-26 08:14:00,
2013-11-26 03:29:00,36.9,15.4,29.59,SW,215,0.0,0.0,41,0.00,,,0.00,VWS V14.01,2013-11-26 08:29:00,
2013-11-26 03:44:00,36.9,15.4,29.59,SW,215,0.0,0.0,41,0.00,,,0.00,VWS V14.01,2013-11-26 08:44:00,
2013-11-26 03:59:00,36.9,15.9,29.59,SW,215,0.0,0.0,42,0.00,,,0.00,VWS V14.01,2013-11-26 08:59:00,
2013-11-26 04:14:00,36.9,15.9,29.59,SW,215,0.0,0.0,42,0.00,,,0.00,VWS V14.01,2013-11-26 09:14:00,
2013-11-26 04:29:00,37.0,16.1,29.59,SW,215,0.0,0.0,42,0.00,,,0.00,VWS V14.01,2013-11-26 09:29:00,
2013-11-26 04:44:00,37.0,16.6,29.59,SW,215,0.0,0.0,43,0.00,,,0.00,VWS V14.01,2013-11-26 09:44:00,
2013-11-26 04:59:00,37.2,16.8,29.59,SW,215,0.0,0.0,43,0.00,,,0.00,VWS V14.01,2013-11-26 09:59:00,
2013-11-26 05:14:00,37.2,17.3,29.56,SW,215,0.0,0.0,44,0.00,,,0.00,VWS V14.01,2013-11-26 10:14:00,
2013-11-26 05:29:00,37.4,17.5,29.56,SW,215,0.0,0.0,44,0.00,,,0.00,VWS V14.01,2013-11-26 10:29:00,
2013-11-26 05:44:00,37.4,18.0,29.56,SW,215,0.0,0.0,45,0.00,,,0.00,VWS V14.01,2013-11-26 10:44:00,
2013-11-26 05:59:00,37.4,18.0,29.56,SW,215,0.0,0.0,45,0.00,,,0.00,VWS V14.01,2013-11-26 10:59:00,
2013-11-26 06:14:00,37.6,18.7,29.56,SW,215,0.0,0.0,46,0.00,,,0.00,VWS V14.01,2013-11-26 11:14:00,
2013-11-26 06:29:00,37.6,18.7,29.56,SW,215,0.0,0.0,46,0.00,,,0.00,VWS V14.01,2013-11-26 11:29:00,
2013-11-26 06:44:00,37.6,18.7,29.56,SW,215,0.0,0.0,46,0.00,,,0.00,VWS V14.01,2013-11-26 11:44:00,
2013-11-26 06:59:00,37.6,19.2,29.53,SW,215,0.0,0.0,47,0.00,,,0.00,VWS V14.01,2013-11-26 11:59:00,
2013-11-26 07:14:00,37.6,19.2,29.53,SW,215,0.0,0.0,47,0.00,,,0.00,VWS V14.01,2013-11-26 12:14:00,
2013-11-26 07:29:00,37.8,19.9,29.53,SW,215,0.0,0.0,48,0.00,,,0.00,VWS V14.01,2013-11-26 12:29:00,
2013-11-26 07:44:00,37.8,19.9,29.53,SW,215,0.0,0.0,48,0.00,,,0.00,VWS V14.01,2013-11-26 12:44:00,
2013-11-26 07:59:00,37.8,20.3,29.53,SW,215,0.0,0.0,49,0.00,,,0.00,VWS V14.01,2013-11-26 12:59:00,
2013-11-26 08:14:00,37.9,20.5,29.53,SW,215,0.0,0.0,49,0.00,,,0.00,VWS V14.01,2013-11-26 13:14:00,
2013-11-26 08:29:00,37.9,20.5,29.53,SW,215,0.0,0.0,49,0.00,,,0.00,VWS V14.01,2013-11-26 13:29:00,
2013-11-26 08:44:00,37.9,20.5,29.53,SW,215,0.0,0.0,49,0.00,,,0.00,VWS V14.01,2013-11-26 13:44:00,
2013-11-26 08:59:00,38.1,21.1,29.53,SW,215,0.0,0.0,50,0.00,,,0.00,VWS V14.01,2013-11-26 13:59:00,
2013-11-26 09:14:00,38.1,21.1,29.50,SW,215,0.0,0.0,50,0.00,,,0.00,VWS V14.01,2013-11-26 14:14:00,
2013-11-26 09:29:00,38.3,21.8,29.50,SW,215,0.0,0.0,51,0.00,,,0.00,VWS V14.01,2013-11-26 14:29:00,
2013-11-26 09:44:00,38.5,21.9,29.50,SW,215,0.0,0.0,51,0.00,,,0.00,VWS V14.01,2013-11-26 14:44:00,
2013-11-26 09:59:00,38.5,21.9,29.47,SW,215,0.0,0.0,51,0.00,,,0.00,VWS V14.01,2013-11-26 14:59:00,
2013-11-26 10:14:00,38.8,22.7,29.47,SW,215,0.0,0.0,52,0.00,,,0.00,VWS V14.01,2013-11-26 15:14:00,
2013-11-26 10:29:00,39.4,23.2,29.47,SW,215,0.0,0.0,52,0.00,,,0.00,VWS V14.01,2013-11-26 15:29:00,
2013-11-26 10:44:00,39.4,23.7,29.47,SW,215,0.0,0.0,53,0.00,,,0.00,VWS V14.01,2013-11-26 15:44:00,
2013-11-26 10:59:00,39.7,24.0,29.47,SW,215,0.0,0.0,53,0.00,,,0.00,VWS V14.01,2013-11-26 15:59:00,
2013-11-26 11:14:00,39.9,24.6,29.47,SW,215,0.0,0.0,54,0.00,,,0.00,VWS V14.01,2013-11-26 16:14:00,
2013-11-26 11:29:00,40.3,25.0,29.44,SW,215,0.0,0.0,54,0.00,,,0.00,VWS V14.01,2013-11-26 16:29:00,
2013-11-26 11:44:00,40.3,25.0,29.41,SW,215,0.0,0.0,54,0.00,,,0.00,VWS V14.01,2013-11-26 16:44:00,
2013-11-26 11:59:00,40.5,25.6,29.38,SW,215,0.0,0.0,55,0.00,,,0.00,VWS V14.01,2013-11-26 16:59:00,
2013-11-26 12:14:00,40.5,25.6,29.38,SW,215,0.0,0.0,55,0.00,,,0.00,VWS V14.01,2013-11-26 17:14:00,
2013-11-26 12:29:00,40.8,26.4,29.38,SW,215,0.0,0.0,56,0.00,,,0.00,VWS V14.01,2013-11-26 17:29:00,
2013-11-26 12:44:00,40.8,26.4,29.38,SW,215,0.0,0.0,56,0.00,,,0.00,VWS V14.01,2013-11-26 17:44:00,
2013-11-26 12:59:00,40.8,26.4,29.35,SW,215,0.0,0.0,56,0.00,,,0.00,VWS V14.01,2013-11-26 17:59:00,
2013-11-26 13:14:00,41.5,27.5,29.32,SW,215,0.0,0.0,57,0.00,,,0.00,VWS V14.01,2013-11-26 18:14:00,
2013-11-26 13:29:00,41.5,27.5,29.32,SW,215,0.0,0.0,57,0.00,,,0.00,VWS V14.01,2013-11-26 18:29:00,
2013-11-26 13:44:00,42.1,28.4,29.32,SW,215,0.0,0.0,58,0.00,,,0.00,VWS V14.01,2013-11-26 18:44:00,
2013-11-26 13:59:00,42.1,28.4,29.29,SW,215,0.0,0.0,58,0.00,,,0.00,VWS V14.01,2013-11-26 18:59:00,
2013-11-26 14:14:00,42.3,29.0,29.29,SW,215,0.0,0.0,59,0.00,,,0.00,VWS V14.01,2013-11-26 19:14:00,
2013-11-26 14:29:00,42.3,29.0,29.29,SW,215,0.0,0.0,59,0.00,,,0.00,VWS V14.01,2013-11-26 19:29:00,
2013-11-26 14:44:00,42.3,29.0,29.29,SW,215,0.0,0.0,59,0.00,,,0.00,VWS V14.01,2013-11-26 19:44:00,
2013-11-26 14:59:00,42.4,29.5,29.29,SW,215,0.0,0.0,60,0.00,,,0.00,VWS V14.01,2013-11-26 19:59:00,
2013-11-26 15:14:00,42.6,29.7,29.26,SW,215,0.0,0.0,60,0.00,,,0.00,VWS V14.01,2013-11-26 20:14:00,
2013-11-26 15:29:00,42.6,29.7,29.26,SW,215,0.0,0.0,60,0.00,,,0.00,VWS V14.01,2013-11-26 20:29:00,
2013-11-26 15:44:00,42.6,30.5,29.26,SW,215,0.0,0.0,62,0.00,,,0.00,VWS V14.01,2013-11-26 20:44:00,
2013-11-26 15:59:00,42.8,30.7,29.23,SW,215,0.0,0.0,62,0.00,,,0.00,VWS V14.01,2013-11-26 20:59:00,
2013-11-26 16:14:00,43.0,31.3,29.23,SW,215,0.0,0.0,63,0.00,,,0.00,VWS V14.01,2013-11-26 21:14:00,
2013-11-26 16:29:00,43.2,31.4,29.23,SW,215,0.0,0.0,63,0.00,,,0.00,VWS V14.01,2013-11-26 21:29:00,
2013-11-26 16:44:00,43.3,32.0,29.21,SW,215,0.0,0.0,64,0.00,,,0.00,VWS V14.01,2013-11-26 21:44:00,
2013-11-26 16:59:00,43.5,32.2,29.23,SW,215,0.0,0.0,64,0.00,,,0.00,VWS V14.01,2013-11-26 21:59:00,
2013-11-26 17:14:00,43.3,32.4,29.23,SW,215,0.0,0.0,65,0.00,,,0.00,VWS V14.01,2013-11-26 22:14:00,
2013-11-26 17:29:00,43.3,32.4,29.21,SW,215,0.0,0.0,65,0.00,,,0.00,VWS V14.01,2013-11-26 22:29:00,
2013-11-26 17:44:00,43.5,32.5,29.21,SW,215,0.0,0.0,65,0.00,,,0.00,VWS V14.01,2013-11-26 22:44:00,
2013-11-26 17:59:00,43.3,32.8,29.21,SW,215,0.0,0.0,66,0.00,,,0.00,VWS V14.01,2013-11-26 22:59:00,
2013-11-26 18:14:00,43.3,33.1,29.15,SW,215,0.0,0.0,67,0.00,,,0.00,VWS V14.01,2013-11-26 23:14:00,
2013-11-26 18:29:00,43.3,33.1,29.15,SW,215,0.0,0.0,67,0.00,,,0.00,VWS V14.01,2013-11-26 23:29:00,
2013-11-26 18:44:00,43.3,33.5,29.18,SW,215,0.0,0.0,68,0.00,,,0.00,VWS V14.01,2013-11-26 23:44:00,
2013-11-26 18:59:00,43.3,33.1,29.18,SW,215,0.0,0.0,67,0.00,,,0.00,VWS V14.01,2013-11-26 23:59:00,
2013-11-26 19:14:00,42.3,32.5,29.15,SE,128,0.0,3.1,68,0.00,,,0.00,VWS V14.01,2013-11-27 00:14:00,
2013-11-26 19:29:00,41.5,31.8,29.18,South,182,0.0,0.0,68,0.00,,,0.00,VWS V14.01,2013-11-27 00:29:00,
2013-11-26 19:44:00,41.2,31.4,29.18,South,182,0.0,0.0,68,0.00,,,0.00,VWS V14.01,2013-11-27 00:44:00,
2013-11-26 19:59:00,40.6,30.9,29.18,South,182,0.0,0.0,68,0.00,,,0.00,VWS V14.01,2013-11-27 00:59:00,
2013-11-26 20:14:00,40.6,30.5,29.18,South,182,0.0,0.0,67,0.00,,,0.00,VWS V14.01,2013-11-27 01:14:00,
2013-11-26 20:29:00,40.3,29.1,29.18,South,182,0.0,0.0,64,0.00,,,0.00,VWS V14.01,2013-11-27 01:29:00,
2013-11-26 20:44:00,39.9,28.4,29.18,South,183,0.0,0.0,63,0.00,,,0.00,VWS V14.01,2013-11-27 01:44:00,
2013-11-26 20:59:00,39.9,28.4,29.18,South,183,0.0,0.0,63,0.00,,,0.00,VWS V14.01,2013-11-27 01:59:00,
2013-11-26 21:14:00,39.7,28.2,29.18,South,183,0.0,0.0,63,0.00,,,0.00,VWS V14.01,2013-11-27 02:14:00,
2013-11-26 21:29:00,39.4,28.2,29.18,South,183,0.0,0.0,64,0.00,,,0.00,VWS V14.01,2013-11-27 02:29:00,
2013-11-26 21:44:00,39.4,28.2,29.18,South,183,0.0,0.0,64,0.00,,,0.00,VWS V14.01,2013-11-27 02:44:00,
2013-11-26 21:59:00,39.2,28.4,29.18,SSW,197,4.0,4.0,65,0.00,,,0.00,VWS V14.01,2013-11-27 02:59:00,
2013-11-26 22:14:00,39.2,28.1,29.18,South,169,0.0,4.0,64,0.00,,,0.00,VWS V14.01,2013-11-27 03:14:00,
2013-11-26 22:29:00,38.8,25.8,29.18,South,170,0.0,4.0,59,0.00,,,0.00,VWS V14.01,2013-11-27 03:29:00,
2013-11-26 22:44:00,38.7,23.0,29.18,South,172,0.0,0.0,53,0.00,,,0.00,VWS V14.01,2013-11-27 03:44:00,
2013-11-26 22:59:00,38.3,21.3,29.21,ENE,76,0.0,5.4,50,0.00,,,0.00,VWS V14.01,2013-11-27 03:59:00,
2013-11-26 23:14:00,37.9,19.5,29.21,SE,128,0.0,2.7,47,0.00,,,0.00,VWS V14.01,2013-11-27 04:14:00,
2013-11-26 23:29:00,37.4,18.5,29.21,North,0,0.0,0.0,46,0.00,,,0.00,VWS V14.01,2013-11-27 04:29:00,
2013-11-26 23:44:00,37.2,18.4,29.21,NE,49,0.0,0.0,46,0.00,,,0.00,VWS V14.01,2013-11-27 04:44:00,
2013-11-26 23:59:00,37.0,18.2,29.21,SE,134,0.0,0.0,46,0.00,,,0.00,VWS V14.01,2013-11-27 04:59:00,